createdAt,value
2019-02-21T00:02:21.905Z,16.33
2019-02-21T00:04:51.308Z,14.00
2019-02-21T00:07:20.671Z,14.27
2019-02-21T00:09:50.048Z,14.00
2019-02-21T00:12:19.452Z,14.83
2019-02-21T00:14:48.840Z,15.93
2019-02-21T00:17:18.210Z,15.20
2019-02-21T00:19:47.576Z,14.30
2019-02-21T00:22:16.961Z,13.13
2019-02-21T00:24:46.323Z,14.13
2019-02-21T00:27:16.418Z,14.13
2019-02-21T00:29:46.966Z,16.60
2019-02-21T00:32:16.422Z,14.10
2019-02-21T00:34:45.822Z,15.57
2019-02-21T00:37:15.209Z,14.60
2019-02-21T00:39:44.817Z,14.17
2019-02-21T00:42:14.322Z,17.57
2019-02-21T00:44:43.693Z,13.57
2019-02-21T00:47:13.341Z,14.90
2019-02-21T00:49:42.709Z,18.37
2019-02-21T00:52:12.107Z,16.73
2019-02-21T00:54:41.534Z,15.07
2019-02-21T00:57:10.913Z,15.03
2019-02-21T00:59:40.321Z,14.90
2019-02-21T01:02:10.097Z,15.30
2019-02-21T01:04:39.508Z,16.73
2019-02-21T01:07:09.201Z,13.13
2019-02-21T01:09:38.579Z,14.98
2019-02-21T01:12:07.985Z,15.70
2019-02-21T01:14:37.404Z,15.23
2019-02-21T01:17:07.140Z,16.80
2019-02-21T01:19:36.986Z,15.70
2019-02-21T01:22:07.482Z,14.40
2019-02-21T01:24:37.098Z,16.67
2019-02-21T01:27:06.581Z,14.30
2019-02-21T01:29:36.994Z,15.80
2019-02-21T01:32:06.456Z,15.93
2019-02-21T01:34:35.923Z,16.53
2019-02-21T01:37:05.319Z,18.70
2019-02-21T01:39:35.051Z,14.53
2019-02-21T01:42:04.577Z,16.57
2019-02-21T01:44:33.989Z,16.50
2019-02-21T01:47:03.541Z,16.43
2019-02-21T01:49:33.004Z,16.93
2019-02-21T01:52:02.395Z,16.83
2019-02-21T01:54:33.892Z,15.75
2019-02-21T01:57:03.281Z,19.07
2019-02-21T01:59:32.754Z,16.67
2019-02-21T02:02:02.262Z,17.43
2019-02-21T02:04:31.625Z,15.17
2019-02-21T02:07:01.261Z,17.87
2019-02-21T02:09:30.673Z,16.12
2019-02-21T02:12:00.315Z,15.77
2019-02-21T02:14:29.780Z,23.80
2019-02-21T02:16:59.438Z,15.73
2019-02-21T02:19:28.922Z,16.07
2019-02-21T02:21:58.370Z,15.55
2019-02-21T02:24:28.071Z,13.73
2019-02-21T02:26:57.452Z,17.37
2019-02-21T02:29:26.864Z,20.00
2019-02-21T02:31:56.248Z,18.87
2019-02-21T02:34:25.658Z,17.30
2019-02-21T02:36:55.073Z,18.82
2019-02-21T02:39:24.477Z,20.33
2019-02-21T02:41:55.042Z,19.27
2019-02-21T02:44:24.724Z,18.23
2019-02-21T02:46:54.114Z,21.93
2019-02-21T02:49:23.524Z,25.40
2019-02-21T02:51:52.978Z,21.70
2019-02-21T02:54:22.407Z,23.57
2019-02-21T02:56:52.267Z,22.07
2019-02-21T02:59:21.658Z,23.43
2019-02-21T03:01:51.159Z,22.03
2019-02-21T03:04:23.486Z,25.73
2019-02-21T03:06:52.885Z,26.10
2019-02-21T03:09:22.267Z,23.83
2019-02-21T03:11:52.244Z,22.80
2019-02-21T03:14:21.903Z,26.97
2019-02-21T03:16:51.725Z,24.67
2019-02-21T03:19:21.338Z,26.40
2019-02-21T03:21:50.792Z,28.62
2019-02-21T03:24:20.190Z,26.87
2019-02-21T03:26:49.853Z,25.70
2019-02-21T03:29:19.324Z,25.17
2019-02-21T03:31:54.458Z,26.23
2019-02-21T03:34:19.825Z,27.03
2019-02-21T03:36:49.196Z,31.90
2019-02-21T03:39:18.593Z,27.73
2019-02-21T03:41:47.986Z,28.67
2019-02-21T03:44:17.390Z,27.17
2019-02-21T03:46:47.631Z,27.52
2019-02-21T03:49:17.509Z,29.12
2019-02-21T03:51:47.508Z,29.43
2019-02-21T03:54:17.699Z,29.95
2019-02-21T03:56:47.661Z,27.55
2019-02-21T03:59:18.218Z,27.40
2019-02-21T04:01:48.448Z,30.27
2019-02-21T04:04:18.362Z,27.13
2019-02-21T04:06:48.443Z,30.77
2019-02-21T04:09:18.469Z,28.55
2019-02-21T04:11:47.881Z,28.35
2019-02-21T04:14:20.726Z,28.27
2019-02-21T04:16:49.435Z,28.37
2019-02-21T04:19:18.998Z,32.20
2019-02-21T04:21:50.074Z,31.93
2019-02-21T04:24:19.725Z,29.23
2019-02-21T04:26:49.217Z,27.00
2019-02-21T04:29:18.705Z,26.13
2019-02-21T04:31:48.567Z,27.30
2019-02-21T04:34:22.396Z,31.23
2019-02-21T04:36:51.945Z,29.65
2019-02-21T04:39:21.332Z,28.53
2019-02-21T04:41:51.264Z,27.17
2019-02-21T04:44:21.031Z,26.50
2019-02-21T04:46:51.644Z,24.03
2019-02-21T04:49:21.375Z,27.97
2019-02-21T04:51:51.056Z,30.00
2019-02-21T04:54:20.972Z,27.97
2019-02-21T04:56:53.550Z,28.87
2019-02-21T04:59:23.117Z,28.07
2019-02-21T05:01:52.625Z,25.73
2019-02-21T05:04:22.157Z,30.93
2019-02-21T05:06:51.937Z,34.10
2019-02-21T05:09:21.435Z,30.07
2019-02-21T05:11:51.106Z,30.50
2019-02-21T05:14:22.363Z,28.10
2019-02-21T05:16:52.581Z,27.93
2019-02-21T05:19:22.054Z,29.20
2019-02-21T05:21:51.641Z,29.72
2019-02-21T05:24:21.274Z,27.30
2019-02-21T05:26:52.537Z,28.10
2019-02-21T05:29:22.327Z,28.03
2019-02-21T05:32:02.947Z,29.37
2019-02-21T05:34:36.975Z,26.95
2019-02-21T05:37:08.408Z,32.77
2019-02-21T05:39:42.193Z,30.47
2019-02-21T05:42:17.686Z,29.23
2019-02-21T05:45:06.793Z,34.23
2019-02-21T05:47:37.971Z,30.73
2019-02-21T05:50:16.322Z,28.83
2019-02-21T05:53:03.963Z,33.80
2019-02-21T05:55:50.651Z,26.37
2019-02-21T05:58:28.110Z,30.63
2019-02-21T06:01:12.043Z,28.87
2019-02-21T06:03:43.180Z,25.68
2019-02-21T06:06:17.421Z,31.07
2019-02-21T06:08:48.643Z,31.03
2019-02-21T06:11:25.830Z,29.42
2019-02-21T06:13:57.021Z,30.83
2019-02-21T06:16:44.387Z,32.30
2019-02-21T06:19:32.271Z,31.00
2019-02-21T06:22:10.911Z,30.97
2019-02-21T06:24:54.545Z,30.20
2019-02-21T06:27:28.784Z,25.70
2019-02-21T06:30:00.011Z,32.70
2019-02-21T06:32:29.560Z,28.17
2019-02-21T06:34:59.210Z,25.80
2019-02-21T06:37:28.864Z,32.60
2019-02-21T06:39:58.352Z,30.53
2019-02-21T06:42:27.857Z,28.77
2019-02-21T06:44:57.445Z,31.67
2019-02-21T06:47:26.982Z,31.00
2019-02-21T06:49:58.687Z,25.10
2019-02-21T06:52:27.729Z,26.20
2019-02-21T06:54:57.603Z,28.20
2019-02-21T06:57:28.872Z,34.40
2019-02-21T07:00:01.306Z,30.02
2019-02-21T07:02:31.489Z,28.90
2019-02-21T07:05:01.255Z,33.77
2019-02-21T07:07:34.684Z,32.52
2019-02-21T07:10:05.648Z,31.70
2019-02-21T07:12:35.336Z,27.50
2019-02-21T07:17:34.286Z,29.90
2019-02-21T07:20:04.078Z,32.17
2019-02-21T07:22:33.709Z,27.53
2019-02-21T07:25:04.720Z,29.90
2019-02-21T07:27:35.284Z,29.53
2019-02-21T07:30:19.264Z,30.65
2019-02-21T07:32:40.265Z,34.63
2019-02-21T07:35:11.173Z,37.77
2019-02-21T07:37:42.457Z,33.03
2019-02-21T07:40:19.802Z,33.53
2019-02-21T07:42:43.519Z,30.43
2019-02-21T07:45:14.832Z,37.50
2019-02-21T07:47:45.928Z,35.73
2019-02-21T07:50:15.524Z,33.43
2019-02-21T07:52:45.464Z,37.17
2019-02-21T07:55:15.255Z,38.23
2019-02-21T07:57:46.870Z,39.30
2019-02-21T08:00:20.252Z,38.43
2019-02-21T08:02:52.058Z,38.70
2019-02-21T08:05:23.685Z,39.00
2019-02-21T08:07:54.529Z,34.97
2019-02-21T08:10:33.632Z,33.67
2019-02-21T08:12:57.386Z,32.40
2019-02-21T08:15:27.874Z,29.23
2019-02-21T08:17:57.814Z,36.03
2019-02-21T08:20:34.156Z,32.50
2019-02-21T08:23:02.856Z,35.30
2019-02-21T08:25:35.233Z,35.53
2019-02-21T08:28:10.435Z,32.50
2019-02-21T08:30:40.219Z,32.63
2019-02-21T08:33:11.361Z,32.10
2019-02-21T08:35:41.160Z,30.33
2019-02-21T08:38:12.089Z,32.27
2019-02-21T08:40:44.940Z,30.23
2019-02-21T08:43:16.796Z,30.82
2019-02-21T08:45:49.571Z,30.77
2019-02-21T08:48:20.819Z,30.35
2019-02-21T08:50:50.764Z,28.92
2019-02-21T08:53:20.418Z,34.30
2019-02-21T08:55:52.091Z,30.15
2019-02-21T08:58:21.698Z,29.77
2019-02-21T09:00:54.550Z,30.37
2019-02-21T09:03:24.773Z,30.97
2019-02-21T09:05:55.882Z,34.03
2019-02-21T09:08:33.573Z,31.00
2019-02-21T09:11:04.066Z,28.27
2019-02-21T09:13:35.870Z,28.80
2019-02-21T09:16:05.566Z,31.93
2019-02-21T09:18:35.699Z,29.47
2019-02-21T09:21:07.265Z,27.10
2019-02-21T09:23:38.089Z,30.37
2019-02-21T09:26:09.087Z,26.30
2019-02-21T09:28:38.830Z,32.90
2019-02-21T09:31:08.730Z,28.80
2019-02-21T09:33:40.466Z,27.83
2019-02-21T09:36:10.352Z,30.73
2019-02-21T09:38:40.332Z,28.93
2019-02-21T09:41:10.128Z,29.65
2019-02-21T09:43:43.343Z,30.80
2019-02-21T09:46:11.475Z,29.83
2019-02-21T09:48:43.386Z,32.07
2019-02-21T09:51:12.910Z,26.20
2019-02-21T09:53:43.094Z,29.60
2019-02-21T09:56:13.697Z,25.20
2019-02-21T09:58:45.722Z,25.62
2019-02-21T10:01:17.406Z,27.87
2019-02-21T10:03:46.899Z,27.00
2019-02-21T10:06:16.767Z,26.50
2019-02-21T10:08:46.267Z,29.90
2019-02-21T10:11:17.820Z,25.97
2019-02-21T10:13:47.467Z,29.90
2019-02-21T10:16:17.394Z,27.60
2019-02-21T10:18:46.920Z,29.93
2019-02-21T10:21:17.038Z,24.23
2019-02-21T10:23:46.891Z,29.12
2019-02-21T10:26:18.571Z,27.58
2019-02-21T10:28:48.028Z,23.83
2019-02-21T10:31:21.947Z,29.42
2019-02-21T10:33:59.125Z,28.65
2019-02-21T10:36:29.106Z,28.77
2019-02-21T10:38:58.647Z,29.57
2019-02-21T10:41:30.381Z,24.93
2019-02-21T10:44:03.085Z,27.98
2019-02-21T10:46:35.800Z,25.40
2019-02-21T10:49:06.875Z,29.90
2019-02-21T10:51:45.102Z,26.23
2019-02-21T10:54:17.638Z,25.87
2019-02-21T10:56:53.565Z,27.62
2019-02-21T10:59:26.176Z,27.65
2019-02-21T11:01:58.223Z,24.05
2019-02-21T11:04:38.004Z,25.10
2019-02-21T11:07:07.820Z,24.33
2019-02-21T11:09:37.870Z,28.43
2019-02-21T11:12:10.282Z,25.33
2019-02-21T11:14:47.540Z,26.10
2019-02-21T11:17:13.945Z,29.32
2019-02-21T11:19:43.353Z,28.17
2019-02-21T11:22:12.748Z,25.97
2019-02-21T11:24:42.146Z,27.77
2019-02-21T11:27:11.557Z,27.77
2019-02-21T11:29:41.223Z,27.60
2019-02-21T11:32:14.188Z,26.57
2019-02-21T11:34:43.759Z,27.67
2019-02-21T11:37:13.145Z,29.83
2019-02-21T11:39:42.542Z,29.07
2019-02-21T11:42:12.053Z,24.17
2019-02-21T11:44:41.404Z,24.63
2019-02-21T11:47:10.792Z,30.23
2019-02-21T11:49:40.171Z,24.05
2019-02-21T11:52:10.510Z,23.43
2019-02-21T11:54:40.006Z,24.43
2019-02-21T11:57:09.476Z,26.37
2019-02-21T11:59:38.852Z,26.13
2019-02-21T12:02:08.327Z,27.02
2019-02-21T12:04:37.710Z,25.27
2019-02-21T12:07:07.094Z,30.57
2019-02-21T12:09:36.754Z,25.53
2019-02-21T12:12:06.120Z,30.67
2019-02-21T12:14:35.510Z,27.30
2019-02-21T12:17:04.948Z,29.10
2019-02-21T12:19:34.342Z,25.30
2019-02-21T12:22:03.745Z,24.63
2019-02-21T12:24:33.126Z,27.37
2019-02-21T12:27:02.509Z,21.87
2019-02-21T12:29:33.883Z,24.23
2019-02-21T12:32:03.962Z,25.97
2019-02-21T12:34:33.616Z,23.27
2019-02-21T12:37:04.747Z,25.10
2019-02-21T12:39:34.937Z,27.82
2019-02-21T12:42:06.304Z,25.60
2019-02-21T12:44:36.120Z,25.20
2019-02-21T12:47:06.133Z,24.87
2019-02-21T12:49:37.440Z,24.70
2019-02-21T12:52:07.114Z,22.93
2019-02-21T12:54:36.772Z,23.53
2019-02-21T12:57:06.532Z,23.13
2019-02-21T12:59:38.291Z,24.95
2019-02-21T13:02:08.061Z,24.43
2019-02-21T13:04:38.004Z,28.15
2019-02-21T13:07:08.091Z,29.25
2019-02-21T13:09:37.818Z,22.93
2019-02-21T13:12:07.240Z,24.23
2019-02-21T13:14:36.943Z,22.75
2019-02-21T13:17:08.466Z,20.75
2019-02-21T13:19:38.533Z,27.37
2019-02-21T13:22:08.156Z,22.13
2019-02-21T13:24:37.533Z,23.53
2019-02-21T13:27:06.931Z,23.27
2019-02-21T13:29:36.307Z,25.33
2019-02-21T13:32:05.706Z,24.43
2019-02-21T13:34:35.107Z,23.90
2019-02-21T13:37:04.518Z,21.60
2019-02-21T13:39:33.914Z,22.23
2019-02-21T13:42:03.300Z,25.00
2019-02-21T13:44:32.708Z,24.00
2019-02-21T13:47:02.341Z,24.37
2019-02-21T13:49:31.733Z,26.83
2019-02-21T13:52:01.106Z,25.93
2019-02-21T13:54:30.724Z,22.43
2019-02-21T13:57:00.097Z,23.50
2019-02-21T13:59:29.742Z,22.70
2019-02-21T14:01:59.132Z,21.57
2019-02-21T14:04:28.626Z,23.00
2019-02-21T14:06:58.022Z,20.97
2019-02-21T14:09:27.435Z,22.43
2019-02-21T14:11:57.079Z,22.07
2019-02-21T14:14:26.525Z,23.50
2019-02-21T14:16:55.930Z,26.75
2019-02-21T14:19:25.341Z,22.73
2019-02-21T14:21:54.751Z,22.75
2019-02-21T14:24:36.032Z,27.07
2019-02-21T14:26:56.242Z,24.63
2019-02-21T14:29:38.551Z,26.20
2019-02-21T14:31:59.239Z,25.50
2019-02-21T14:34:28.662Z,26.97
2019-02-21T14:36:58.070Z,30.53
2019-02-21T14:39:27.705Z,23.87
2019-02-21T14:41:57.088Z,26.17
2019-02-21T14:44:26.485Z,27.17
2019-02-21T14:46:55.889Z,22.23
2019-02-21T14:49:25.781Z,26.68
2019-02-21T14:51:55.263Z,22.93
2019-02-21T14:54:24.669Z,30.27
2019-02-21T14:56:54.299Z,29.93
2019-02-21T14:59:23.714Z,24.00
2019-02-21T15:01:53.194Z,27.00
2019-02-21T15:04:22.607Z,23.40
2019-02-21T15:06:51.989Z,28.25
2019-02-21T15:09:21.369Z,28.87
2019-02-21T15:11:50.999Z,27.70
2019-02-21T15:14:20.376Z,29.10
2019-02-21T15:16:49.826Z,27.47
2019-02-21T15:19:19.495Z,25.33
2019-02-21T15:21:48.901Z,28.15
2019-02-21T15:24:18.607Z,28.25
2019-02-21T15:26:49.143Z,27.60
2019-02-21T15:29:18.511Z,28.57
2019-02-21T15:31:49.310Z,25.37
2019-02-21T15:34:24.125Z,27.47
2019-02-21T15:36:55.501Z,32.47
2019-02-21T15:39:25.229Z,27.37
2019-02-21T15:41:55.904Z,26.93
2019-02-21T15:44:27.033Z,28.32
2019-02-21T15:46:57.036Z,31.48
2019-02-21T15:49:29.281Z,27.10
2019-02-21T15:51:58.929Z,29.60
2019-02-21T15:54:28.557Z,31.90
2019-02-21T15:56:59.843Z,29.20
2019-02-21T15:59:31.153Z,30.93
2019-02-21T16:02:00.766Z,35.25
2019-02-21T16:04:31.275Z,34.37
2019-02-21T16:07:02.523Z,29.10
2019-02-21T16:09:35.293Z,28.97
2019-02-21T16:12:07.523Z,25.60
2019-02-21T16:14:37.814Z,26.17
2019-02-21T16:17:07.486Z,28.00
2019-02-21T16:19:37.364Z,26.93
2019-02-21T16:22:07.689Z,26.63
2019-02-21T16:24:38.018Z,31.53
2019-02-21T16:27:09.589Z,28.37
2019-02-21T16:29:39.283Z,29.13
2019-02-21T16:32:08.816Z,30.50
2019-02-21T16:34:40.505Z,36.73
2019-02-21T16:37:15.367Z,31.77
2019-02-21T16:39:44.928Z,29.93
2019-02-21T16:42:16.127Z,28.25
2019-02-21T16:44:46.591Z,24.72
2019-02-21T16:47:16.544Z,29.93
2019-02-21T16:49:46.400Z,27.90
2019-02-21T16:52:17.786Z,37.30
2019-02-21T16:54:48.982Z,37.20
2019-02-21T16:57:20.252Z,32.50
2019-02-21T16:59:49.790Z,31.43
2019-02-21T17:02:20.886Z,33.97
2019-02-21T17:04:50.854Z,29.47
2019-02-21T17:07:25.266Z,33.53
2019-02-21T17:09:55.122Z,31.13
2019-02-21T17:12:24.663Z,37.20
2019-02-21T17:14:54.033Z,33.43
2019-02-21T17:17:23.420Z,29.13
2019-02-21T17:19:52.822Z,35.40
2019-02-21T17:22:22.470Z,33.80
2019-02-21T17:24:53.128Z,36.47
2019-02-21T17:27:28.711Z,36.27
2019-02-21T17:29:59.264Z,35.00
2019-02-21T17:32:28.810Z,39.10
2019-02-21T17:34:58.185Z,37.70
2019-02-21T17:37:27.813Z,35.33
2019-02-21T17:39:57.183Z,35.47
2019-02-21T17:42:28.135Z,36.13
2019-02-21T17:44:57.510Z,34.80
2019-02-21T17:47:27.132Z,38.85
2019-02-21T17:49:56.527Z,39.37
2019-02-21T17:52:25.911Z,36.23
2019-02-21T17:54:55.539Z,33.73
2019-02-21T17:57:24.956Z,41.97
2019-02-21T17:59:54.347Z,35.47
2019-02-21T18:02:23.732Z,36.43
2019-02-21T18:04:53.138Z,36.53
2019-02-21T18:07:22.536Z,37.73
2019-02-21T18:09:51.930Z,37.17
2019-02-21T18:12:21.338Z,31.80
2019-02-21T18:14:50.983Z,35.10
2019-02-21T18:17:20.376Z,31.17
2019-02-21T18:19:49.801Z,40.37
2019-02-21T18:22:22.077Z,36.20
2019-02-21T18:24:51.504Z,34.03
2019-02-21T18:27:20.903Z,37.60
2019-02-21T18:29:50.638Z,38.75
2019-02-21T18:32:20.029Z,40.07
2019-02-21T18:34:49.620Z,38.33
2019-02-21T18:37:19.006Z,34.47
2019-02-21T18:39:48.412Z,33.37
2019-02-21T18:42:17.832Z,32.23
2019-02-21T18:44:47.191Z,35.43
2019-02-21T18:47:16.596Z,34.73
2019-02-21T18:49:45.989Z,37.05
2019-02-21T18:52:15.366Z,38.57
2019-02-21T18:54:44.776Z,39.80
2019-02-21T18:57:14.149Z,46.25
2019-02-21T18:59:43.573Z,40.73
2019-02-21T19:02:14.742Z,43.23
2019-02-21T19:04:44.430Z,41.43
2019-02-21T19:07:17.029Z,39.87
2019-02-21T19:12:44.802Z,43.50
2019-02-21T19:15:25.224Z,43.58
2019-02-21T19:18:01.849Z,38.43
2019-02-21T19:20:32.106Z,39.87
2019-02-21T19:32:32.341Z,35.10
2019-02-21T19:35:26.142Z,40.57
2019-02-21T19:41:49.282Z,39.42
2019-02-21T19:59:49.890Z,40.03
2019-02-21T20:03:10.160Z,38.20
2019-02-21T20:39:26.634Z,38.10
2019-02-21T20:42:41.486Z,36.67
2019-02-21T20:45:24.830Z,36.77
2019-02-21T20:48:27.534Z,36.27
2019-02-21T20:50:56.158Z,42.23
2019-02-21T20:59:19.165Z,40.05
2019-02-21T21:01:51.254Z,38.77
2019-02-21T21:04:30.117Z,37.47
2019-02-21T21:07:01.156Z,41.23
2019-02-21T21:09:33.043Z,38.00
2019-02-21T21:12:05.834Z,38.70
2019-02-21T21:14:35.385Z,36.47
2019-02-21T21:17:05.069Z,39.93
2019-02-21T21:19:37.318Z,38.43
2019-02-21T21:22:06.883Z,35.47
2019-02-21T21:24:36.231Z,36.27
2019-02-21T21:27:05.709Z,42.60
2019-02-21T21:29:35.135Z,38.90
2019-02-21T21:32:04.600Z,39.30
2019-02-21T21:34:35.660Z,33.87
2019-02-21T21:37:05.070Z,37.57
2019-02-21T21:39:34.818Z,37.93
2019-02-21T21:42:04.322Z,44.80
2019-02-21T21:44:33.816Z,41.97
2019-02-21T21:47:03.811Z,40.17
2019-02-21T21:49:33.791Z,39.38
2019-02-21T21:52:04.421Z,42.97
2019-02-21T21:54:34.826Z,42.40
2019-02-21T21:57:04.539Z,40.80
2019-02-21T21:59:34.544Z,43.58
2019-02-21T22:02:06.892Z,38.77
2019-02-21T22:04:36.717Z,42.10
2019-02-21T22:07:06.174Z,44.17
2019-02-21T22:09:35.552Z,41.73
2019-02-21T22:12:04.953Z,45.83
2019-02-21T22:14:34.409Z,46.70
2019-02-21T22:17:03.893Z,38.80
2019-02-21T22:19:33.353Z,37.37
2019-02-21T22:22:02.730Z,39.05
2019-02-21T22:24:32.467Z,39.77
2019-02-21T22:27:02.684Z,35.03
2019-02-21T22:29:32.361Z,37.88
2019-02-21T22:32:04.022Z,39.93
2019-02-21T22:34:33.624Z,40.58
2019-02-21T22:37:03.077Z,42.70
2019-02-21T22:39:34.489Z,37.63
2019-02-21T22:42:08.992Z,40.63
2019-02-21T22:44:38.371Z,46.55
2019-02-21T22:47:07.794Z,44.40
2019-02-21T22:49:37.266Z,42.27
2019-02-21T22:52:08.983Z,43.68
2019-02-21T22:54:38.562Z,46.03
2019-02-21T22:57:08.221Z,46.80
2019-02-21T22:59:37.704Z,43.70
2019-02-21T23:02:07.398Z,41.50
2019-02-21T23:04:44.499Z,49.50
2019-02-21T23:07:26.950Z,42.85
2019-02-21T23:09:56.691Z,45.67
2019-02-21T23:12:26.144Z,46.00
2019-02-21T23:14:55.748Z,46.30
2019-02-21T23:17:25.238Z,43.70
2019-02-21T23:19:57.834Z,45.97
2019-02-21T23:22:27.563Z,50.35
2019-02-21T23:25:00.393Z,52.17
2019-02-21T23:27:29.946Z,44.07
2019-02-21T23:29:59.421Z,46.80
2019-02-21T23:32:28.913Z,48.17
2019-02-21T23:34:58.317Z,45.10
2019-02-21T23:37:27.759Z,49.50
2019-02-21T23:39:57.233Z,50.07
2019-02-21T23:42:26.579Z,50.50
2019-02-21T23:44:56.115Z,45.30
2019-02-21T23:47:25.475Z,41.97
2019-02-21T23:49:54.994Z,48.77
2019-02-21T23:52:24.828Z,51.47
2019-02-21T23:54:54.490Z,48.87
2019-02-21T23:57:23.925Z,49.80
2019-02-21T23:59:53.930Z,45.08
